Terminal Aerodrome Forecast
Issued by NWS

Home | Current Version | Previous Version | Text Only | Print | Product List | Glossary On
Versions: 1 2 3 4 5 6 7 8 9 10 11 12 13
632
FTUS43 KFGF 060520
TAFBJI
TAF
KBJI 060520Z 0606/0706 23006KT P6SM FEW250 WS020/25035KT
     FM061200 22005KT P6SM FEW250
     FM061700 26012KT P6SM FEW250
     FM062000 31014KT P6SM SCT250
     FM070400 33009KT P6SM SCT250=

USA.gov is the U.S. government's official web portal to all federal, state and local government web resources and services.